Time;durP1;ratioP1;P1;durP2;ratioP2;P2;SDS_P1;SDS_P2;PMS_P1;PMS_P2;Temp;Humidity;BMP_temperature;BMP_pressure;BME280_temperature;BME280_humidity;BME280_pressure;Samples;Min_cycle;Max_cycle;Signal;HPM_P1;HPM_P2
2021/12/22 00:01:19;;;;;;;4.50;4.10;;;0.40;99.90;;;;;;5004732;28;20057;-77
2021/12/22 00:03:47;;;;;;;12.57;4.80;;;0.30;99.90;;;;;;5004503;28;20050;-77
2021/12/22 00:06:14;;;;;;;8.47;4.43;;;0.30;99.90;;;;;;5003792;28;20085;-77
2021/12/22 00:08:40;;;;;;;8.40;5.47;;;0.30;99.90;;;;;;5004181;28;20505;-77
2021/12/22 00:11:05;;;;;;;7.27;6.60;;;0.30;99.90;;;;;;4985403;28;20125;-77
2021/12/22 00:13:31;;;;;;;2.93;2.73;;;0.30;99.90;;;;;;5004068;28;20093;-77
2021/12/22 00:15:56;;;;;;;4.93;4.53;;;0.30;99.90;;;;;;5004134;28;20096;-77
2021/12/22 00:18:22;;;;;;;5.17;3.77;;;0.30;99.90;;;;;;4986364;28;20081;-76
2021/12/22 00:20:49;;;;;;;4.87;4.50;;;0.30;99.90;;;;;;4986804;28;20050;-77
2021/12/22 00:23:14;;;;;;;7.67;4.50;;;0.20;99.90;;;;;;5003686;28;20053;-77
2021/12/22 00:25:40;;;;;;;5.03;4.30;;;0.20;99.90;;;;;;5003154;28;20450;-77
2021/12/22 00:28:05;;;;;;;5.97;5.43;;;0.20;99.90;;;;;;5003187;28;20497;-77
2021/12/22 00:30:31;;;;;;;3.50;3.20;;;0.20;99.90;;;;;;4969229;28;20050;-77
2021/12/22 00:33:03;;;;;;;11.60;5.40;;;0.20;99.90;;;;;;4983706;28;20042;-77
2021/12/22 00:35:37;;;;;;;3.67;3.38;;;0.20;99.90;;;;;;4966401;28;20054;-77
2021/12/22 00:38:04;;;;;;;4.90;4.37;;;0.20;99.90;;;;;;4966483;28;20197;-77
2021/12/22 00:40:29;;;;;;;3.37;3.10;;;0.20;99.90;;;;;;4965806;28;20046;-77
2021/12/22 00:42:55;;;;;;;5.47;4.97;;;0.10;99.90;;;;;;4984152;28;20502;-77
2021/12/22 00:45:24;;;;;;;6.13;4.37;;;0.20;99.90;;;;;;4950688;28;20501;-76
2021/12/22 00:47:49;;;;;;;4.97;4.30;;;0.20;99.90;;;;;;4984236;28;20472;-77
2021/12/22 00:50:17;;;;;;;7.50;4.03;;;0.10;99.90;;;;;;4983693;28;20129;-77
2021/12/22 00:52:43;;;;;;;5.07;4.67;;;0.10;99.90;;;;;;4983621;28;20076;-77
2021/12/22 00:55:09;;;;;;;8.43;3.70;;;0.10;99.90;;;;;;4966374;28;20501;-77
2021/12/22 00:57:38;;;;;;;5.33;4.60;;;0.10;99.90;;;;;;4983330;28;20044;-77
2021/12/22 01:00:06;;;;;;;5.27;4.37;;;0.10;99.90;;;;;;4966157;28;20125;-77
2021/12/22 01:02:32;;;;;;;8.37;5.87;;;0.10;99.90;;;;;;4983646;28;20053;-76
2021/12/22 01:04:57;;;;;;;4.43;3.97;;;0.10;99.90;;;;;;4983073;28;20046;-77
2021/12/22 01:07:23;;;;;;;7.27;3.70;;;0.10;99.90;;;;;;4983539;28;20390;-77
2021/12/22 01:09:48;;;;;;;7.70;4.60;;;0.10;99.90;;;;;;4983746;28;20452;-77
2021/12/22 01:12:14;;;;;;;7.70;4.40;;;0.10;99.90;;;;;;4982524;28;20050;-77
2021/12/22 01:14:40;;;;;;;4.80;4.40;;;0.10;99.90;;;;;;4983619;28;20623;-76
2021/12/22 01:17:09;;;;;;;24.77;4.20;;;0.10;99.90;;;;;;4965741;28;20108;-77
2021/12/22 01:19:47;;;;;;;5.53;4.07;;;0.10;99.90;;;;;;4983597;28;20050;-77
2021/12/22 01:22:46;;;;;;;3.90;3.47;;;0.10;99.90;;;;;;4982753;28;20729;-76
2021/12/22 01:25:14;;;;;;;3.73;3.17;;;0.10;99.90;;;;;;4965767;28;20050;-77
2021/12/22 01:27:42;;;;;;;3.13;2.90;;;0.00;99.90;;;;;;4982208;28;20046;-77
2021/12/22 01:30:29;;;;;;;9.17;4.67;;;0.00;99.90;;;;;;4962762;28;20045;-76
2021/12/22 01:32:59;;;;;;;5.00;4.50;;;0.00;99.90;;;;;;4984720;28;20045;-77
2021/12/22 01:35:27;;;;;;;3.97;3.67;;;0.00;99.90;;;;;;4985150;28;20061;-76
2021/12/22 01:37:53;;;;;;;3.97;3.70;;;0.00;99.90;;;;;;4984821;28;20033;-77
2021/12/22 01:40:20;;;;;;;9.10;5.07;;;0.00;99.90;;;;;;4984450;28;20129;-76
2021/12/22 01:42:47;;;;;;;5.10;4.37;;;0.00;99.90;;;;;;4968997;28;20053;-76
2021/12/22 01:50:51;;;;;;;5.40;5.00;;;-0.10;99.90;;;;;;4926307;29;20145;-76
2021/12/22 01:53:19;;;;;;;6.87;6.00;;;-0.10;99.90;;;;;;4973731;28;20046;-77
2021/12/22 01:55:58;;;;;;;5.40;4.90;;;-0.10;99.90;;;;;;5001598;28;20045;-76
2021/12/22 01:58:35;;;;;;;4.23;3.77;;;-0.10;99.90;;;;;;5002351;28;20038;-76
2021/12/22 02:01:02;;;;;;;6.07;5.60;;;-0.10;99.90;;;;;;4984334;28;20042;-76
2021/12/22 02:03:28;;;;;;;5.23;3.97;;;-0.20;99.90;;;;;;4984395;28;20054;-76
2021/12/22 02:05:53;;;;;;;4.23;3.73;;;-0.20;99.90;;;;;;4983939;28;20089;-77
2021/12/22 02:08:19;;;;;;;8.00;3.57;;;-0.10;99.90;;;;;;4984721;28;20528;-77
2021/12/22 02:10:47;;;;;;;4.37;3.43;;;-0.20;99.90;;;;;;4995702;22;20089;-76
2021/12/22 02:13:22;;;;;;;4.13;2.50;;;-0.20;99.90;;;;;;4964525;28;20078;-76
2021/12/22 02:15:48;;;;;;;3.80;3.57;;;-0.20;99.90;;;;;;4965430;28;20496;-77
2021/12/22 02:18:18;;;;;;;11.40;4.87;;;-0.20;99.90;;;;;;4964625;28;20496;-76
2021/12/22 02:20:47;;;;;;;5.83;4.10;;;-0.20;99.90;;;;;;4982853;28;20049;-77
2021/12/22 02:23:13;;;;;;;5.60;4.00;;;-0.20;99.90;;;;;;4964877;28;20049;-76
2021/12/22 02:25:47;;;;;;;4.97;4.57;;;-0.30;99.90;;;;;;4982045;28;20043;-76
2021/12/22 02:28:23;;;;;;;6.27;5.57;;;-0.20;99.90;;;;;;4981827;28;20049;-76
2021/12/22 02:30:51;;;;;;;7.97;4.03;;;-0.30;99.90;;;;;;5002063;28;20141;-77
2021/12/22 02:33:23;;;;;;;4.43;4.00;;;-0.30;99.90;;;;;;4984739;28;20054;-76
2021/12/22 02:36:07;;;;;;;5.50;3.40;;;-0.30;99.90;;;;;;4985097;28;20046;-76
2021/12/22 02:38:39;;;;;;;7.70;5.13;;;-0.30;99.90;;;;;;5002011;28;21151;-76
2021/12/22 02:41:09;;;;;;;6.43;5.13;;;-0.30;99.90;;;;;;4982995;28;20034;-76
2021/12/22 02:43:43;;;;;;;5.23;4.73;;;-0.30;99.90;;;;;;5002045;28;20042;-77
2021/12/22 02:46:09;;;;;;;5.77;3.70;;;-0.30;99.90;;;;;;4984292;28;20073;-76
2021/12/22 02:48:34;;;;;;;4.17;3.70;;;-0.30;99.90;;;;;;4984164;28;20212;-76
2021/12/22 02:51:02;;;;;;;3.70;3.40;;;-0.30;99.90;;;;;;4984399;28;20484;-77
2021/12/22 02:53:39;;;;;;;4.60;3.40;;;-0.40;99.90;;;;;;5001696;28;20045;-76
2021/12/22 03:04:20;;;;;;;5.70;4.93;;;-0.30;99.90;;;;;;5005293;28;20050;-76
2021/12/22 03:09:23;;;;;;;4.07;3.77;;;-0.40;99.90;;;;;;5004896;28;20838;-76
2021/12/22 03:11:50;;;;;;;5.87;3.53;;;-0.40;99.90;;;;;;4987653;28;20101;-77
2021/12/22 03:14:17;;;;;;;4.03;3.77;;;-0.40;99.90;;;;;;4988352;28;20053;-76
2021/12/22 03:16:42;;;;;;;4.33;3.93;;;-0.40;99.90;;;;;;4988105;28;20129;-76
2021/12/22 03:19:10;;;;;;;4.17;3.90;;;-0.40;99.90;;;;;;5005130;28;20616;-76
2021/12/22 03:21:36;;;;;;;5.43;3.73;;;-0.40;99.90;;;;;;4987891;28;20046;-76
2021/12/22 03:24:02;;;;;;;5.70;4.20;;;-0.40;99.90;;;;;;5004871;28;20064;-77
2021/12/22 03:26:29;;;;;;;2.80;2.60;;;-0.40;99.90;;;;;;4987376;28;20046;-76
2021/12/22 03:28:55;;;;;;;4.80;4.20;;;-0.40;99.90;;;;;;5000696;28;20399;-77
2021/12/22 03:31:21;;;;;;;4.07;3.77;;;-0.40;99.90;;;;;;4986132;28;20145;-76
2021/12/22 03:33:46;;;;;;;4.20;3.60;;;-0.40;99.90;;;;;;4985675;28;20121;-76
2021/12/22 03:36:12;;;;;;;7.17;4.27;;;-0.40;99.90;;;;;;4985108;28;20050;-76
2021/12/22 03:38:38;;;;;;;11.10;3.87;;;-0.40;99.90;;;;;;4967879;28;20429;-76
2021/12/22 03:41:05;;;;;;;3.43;3.17;;;-0.40;99.90;;;;;;4966430;28;20144;-76
2021/12/22 03:43:31;;;;;;;8.70;4.67;;;-0.50;99.90;;;;;;4985248;28;20072;-76
2021/12/22 03:45:57;;;;;;;4.20;3.50;;;-0.50;99.90;;;;;;4984959;28;20536;-76
2021/12/22 03:48:24;;;;;;;3.80;3.50;;;-0.50;99.90;;;;;;4984913;28;20060;-77
2021/12/22 03:50:50;;;;;;;4.17;3.93;;;-0.50;99.90;;;;;;4985699;28;20100;-77
2021/12/22 03:53:16;;;;;;;3.90;3.47;;;-0.50;99.90;;;;;;4967919;28;20070;-76
2021/12/22 03:55:41;;;;;;;3.77;3.47;;;-0.50;99.90;;;;;;4984224;28;20582;-76
2021/12/22 03:58:07;;;;;;;4.47;2.97;;;-0.50;99.90;;;;;;4984987;28;20038;-76
2021/12/22 04:00:35;;;;;;;4.17;3.53;;;-0.50;99.90;;;;;;4967205;28;20050;-76
2021/12/22 04:03:02;;;;;;;2.77;2.47;;;-0.50;99.90;;;;;;4967748;28;20073;-76
2021/12/22 04:05:28;;;;;;;2.50;2.30;;;-0.60;99.90;;;;;;4984931;28;20042;-76
2021/12/22 04:07:55;;;;;;;10.53;5.80;;;-0.50;99.90;;;;;;4984135;28;20042;-76
2021/12/22 04:10:22;;;;;;;4.37;4.03;;;-0.50;99.90;;;;;;4966048;28;20112;-76
2021/12/22 04:12:56;;;;;;;8.83;4.30;;;-0.50;99.90;;;;;;4985215;28;20048;-76
2021/12/22 04:15:25;;;;;;;8.90;6.00;;;-0.50;99.90;;;;;;4984922;28;20070;-76
2021/12/22 04:17:51;;;;;;;3.70;3.40;;;-0.50;99.90;;;;;;4984481;28;20070;-76
2021/12/22 04:20:17;;;;;;;3.03;2.80;;;-0.50;99.90;;;;;;4985038;28;20728;-76
2021/12/22 04:22:43;;;;;;;5.53;4.83;;;-0.50;99.90;;;;;;4984526;28;20374;-76
2021/12/22 04:25:09;;;;;;;7.73;3.07;;;-0.50;99.90;;;;;;4965942;28;20050;-76
2021/12/22 04:27:37;;;;;;;8.67;4.13;;;-0.60;99.90;;;;;;4984179;28;20038;-76
2021/12/22 04:30:04;;;;;;;6.23;3.57;;;-0.60;99.90;;;;;;4997131;28;20731;-76
2021/12/22 04:32:30;;;;;;;5.77;4.43;;;-0.60;99.90;;;;;;5004140;28;20445;-76
2021/12/22 04:34:55;;;;;;;4.07;3.47;;;-0.60;99.90;;;;;;5003526;28;20075;-76
2021/12/22 04:37:21;;;;;;;4.77;3.37;;;-0.60;99.90;;;;;;5004066;28;20070;-76
2021/12/22 04:39:47;;;;;;;5.13;4.73;;;-0.60;99.90;;;;;;4985585;28;20050;-76
2021/12/22 04:42:14;;;;;;;5.43;4.40;;;-0.60;99.90;;;;;;4985879;28;20054;-76
2021/12/22 04:44:40;;;;;;;7.70;5.47;;;-0.60;99.90;;;;;;4986279;28;20054;-76
2021/12/22 04:47:06;;;;;;;3.07;2.87;;;-0.60;99.90;;;;;;4986213;28;20057;-77
2021/12/22 04:49:31;;;;;;;3.50;2.83;;;-0.60;99.90;;;;;;5003623;28;20124;-76
2021/12/22 04:51:58;;;;;;;4.77;2.73;;;-0.60;99.90;;;;;;5003181;28;20133;-76
2021/12/22 04:56:53;;;;;;;4.23;3.53;;;-0.70;99.90;;;;;;4984978;28;20456;-76
2021/12/22 04:59:19;;;;;;;4.77;3.87;;;-0.60;99.90;;;;;;4985922;28;20488;-76
2021/12/22 05:01:45;;;;;;;10.70;4.57;;;-0.60;99.90;;;;;;5003391;28;20042;-76
2021/12/22 05:04:10;;;;;;;6.23;4.20;;;-0.60;99.90;;;;;;4985288;28;20053;-76
2021/12/22 05:06:36;;;;;;;4.67;4.37;;;-0.60;99.90;;;;;;4985785;28;20125;-76
2021/12/22 05:09:06;;;;;;;4.43;4.03;;;-0.60;99.90;;;;;;5002785;28;20851;-76
2021/12/22 05:11:32;;;;;;;4.50;3.87;;;-0.60;99.90;;;;;;5002233;28;20713;-77
2021/12/22 05:13:58;;;;;;;10.47;3.73;;;-0.60;99.90;;;;;;4985384;28;20091;-76
2021/12/22 05:16:24;;;;;;;6.17;5.57;;;-0.50;99.90;;;;;;5002937;28;20435;-76
2021/12/22 05:21:16;;;;;;;8.33;5.03;;;-0.50;99.90;;;;;;5002443;28;20077;-76
2021/12/22 05:23:41;;;;;;;6.30;4.57;;;-0.50;99.90;;;;;;4985207;28;20053;-76
2021/12/22 05:26:07;;;;;;;8.53;4.80;;;-0.50;99.90;;;;;;4984481;28;20042;-77
2021/12/22 05:28:32;;;;;;;5.67;5.17;;;-0.60;99.90;;;;;;4984136;28;20042;-77
2021/12/22 05:30:58;;;;;;;6.63;3.03;;;-0.60;99.90;;;;;;4983111;28;20521;-76
2021/12/22 05:33:23;;;;;;;6.43;4.87;;;-0.50;99.90;;;;;;4983495;28;20038;-76
2021/12/22 05:35:49;;;;;;;6.37;5.70;;;-0.60;99.90;;;;;;4965816;28;20042;-76
2021/12/22 05:38:15;;;;;;;4.37;3.93;;;-0.60;99.90;;;;;;4982695;28;20053;-76
2021/12/22 05:40:41;;;;;;;3.43;3.00;;;-0.60;99.90;;;;;;4982117;28;20112;-77
2021/12/22 05:43:06;;;;;;;10.60;5.43;;;-0.70;99.90;;;;;;4982904;28;20038;-76
2021/12/22 05:45:32;;;;;;;3.43;3.23;;;-0.70;99.90;;;;;;4965496;28;20039;-76
2021/12/22 05:47:58;;;;;;;5.43;3.47;;;-0.80;99.90;;;;;;4965457;28;20050;-76
2021/12/22 05:50:24;;;;;;;3.97;3.43;;;-0.80;99.90;;;;;;4983041;28;20082;-76
2021/12/22 05:52:50;;;;;;;8.37;4.83;;;-0.70;99.90;;;;;;4983189;28;20539;-77
2021/12/22 05:55:16;;;;;;;9.13;4.00;;;-0.80;99.90;;;;;;4982638;28;20050;-76
2021/12/22 05:57:42;;;;;;;3.57;3.27;;;-0.80;99.90;;;;;;4965429;28;20129;-76
2021/12/22 06:00:08;;;;;;;5.93;5.43;;;-0.80;99.90;;;;;;4982320;28;20128;-76
2021/12/22 06:02:34;;;;;;;5.73;4.20;;;-0.80;99.90;;;;;;4989421;28;20046;-76
2021/12/22 06:04:59;;;;;;;10.27;4.77;;;-0.80;99.90;;;;;;4983985;28;20584;-76
2021/12/22 06:07:25;;;;;;;5.83;5.23;;;-0.80;99.90;;;;;;4964142;28;20104;-76
2021/12/22 06:09:51;;;;;;;5.20;4.70;;;-0.80;99.90;;;;;;4980299;28;20424;-77
2021/12/22 06:12:16;;;;;;;5.67;3.47;;;-0.80;99.90;;;;;;4965187;28;20586;-76
2021/12/22 06:14:42;;;;;;;7.53;5.83;;;-0.80;99.90;;;;;;4982679;28;20498;-76
2021/12/22 06:17:08;;;;;;;3.03;2.83;;;-0.80;99.90;;;;;;4981958;28;20042;-76
2021/12/22 06:19:33;;;;;;;8.33;5.10;;;-0.70;99.90;;;;;;4982605;28;20030;-77
2021/12/22 06:21:59;;;;;;;6.47;3.17;;;-0.80;99.90;;;;;;4964802;28;20125;-76
2021/12/22 06:24:24;;;;;;;9.87;5.13;;;-0.80;99.90;;;;;;4982574;28;20443;-76
2021/12/22 06:26:50;;;;;;;5.43;4.37;;;-0.80;99.90;;;;;;4971751;28;20467;-76
2021/12/22 06:29:15;;;;;;;5.07;4.73;;;-0.90;99.90;;;;;;4959208;28;20050;-76
2021/12/22 06:31:41;;;;;;;3.43;3.23;;;-0.90;99.90;;;;;;4984000;28;20121;-76
2021/12/22 06:34:07;;;;;;;10.80;5.47;;;-1.00;99.90;;;;;;5001709;28;20038;-82
2021/12/22 06:36:32;;;;;;;3.20;2.93;;;-1.00;99.90;;;;;;4961337;28;20477;-82
2021/12/22 06:38:58;;;;;;;5.13;4.70;;;-1.00;99.90;;;;;;4977593;28;20065;-82
2021/12/22 06:41:24;;;;;;;7.80;2.97;;;-1.00;99.90;;;;;;4962562;28;20062;-81
2021/12/22 06:43:49;;;;;;;8.07;4.60;;;-1.00;99.90;;;;;;4964762;28;20468;-81
2021/12/22 06:46:15;;;;;;;3.40;3.13;;;-1.10;99.90;;;;;;4964371;28;20054;-82
2021/12/22 06:48:40;;;;;;;10.40;4.87;;;-1.10;99.90;;;;;;4964032;28;20050;-81
2021/12/22 06:51:06;;;;;;;6.23;4.43;;;-1.00;99.90;;;;;;4960629;28;20045;-83
2021/12/22 06:53:34;;;;;;;6.10;5.63;;;-1.00;99.90;;;;;;4964671;28;20571;-86
2021/12/22 06:56:00;;;;;;;8.20;5.57;;;-1.00;99.90;;;;;;4963135;28;20081;-83
2021/12/22 06:58:26;;;;;;;6.57;4.90;;;-1.00;99.90;;;;;;4982812;28;20038;-79
2021/12/22 07:00:52;;;;;;;9.60;5.87;;;-1.00;99.90;;;;;;4981039;28;20045;-79
2021/12/22 07:03:17;;;;;;;4.73;4.30;;;-1.00;99.90;;;;;;4982211;28;20072;-79
2021/12/22 07:05:43;;;;;;;4.40;3.87;;;-1.00;99.90;;;;;;4981780;28;20047;-79
2021/12/22 07:08:08;;;;;;;5.10;3.83;;;-1.00;99.90;;;;;;4981715;28;20053;-80
2021/12/22 07:10:34;;;;;;;7.97;6.00;;;-1.00;99.90;;;;;;4980775;28;20058;-79
2021/12/22 07:13:00;;;;;;;5.83;5.33;;;-1.00;99.90;;;;;;4958601;28;20054;-79
2021/12/22 07:15:25;;;;;;;4.93;4.50;;;-0.90;99.90;;;;;;4982191;28;20092;-81
2021/12/22 07:17:55;;;;;;;5.77;4.63;;;-0.90;99.90;;;;;;4982791;28;20043;-79
2021/12/22 07:20:20;;;;;;;6.40;4.67;;;-0.90;99.90;;;;;;4982352;28;20088;-82
2021/12/22 07:22:46;;;;;;;5.57;4.60;;;-1.00;99.90;;;;;;4964361;28;20463;-82
2021/12/22 07:25:13;;;;;;;9.37;5.23;;;-1.00;99.90;;;;;;4980877;28;20042;-82
2021/12/22 07:27:39;;;;;;;4.87;4.47;;;-1.00;99.90;;;;;;4964382;28;20039;-82
2021/12/22 07:30:06;;;;;;;5.90;5.50;;;-1.00;99.90;;;;;;4965580;28;20042;-80
2021/12/22 07:32:32;;;;;;;9.17;5.97;;;-1.00;99.90;;;;;;4961229;28;20070;-83
2021/12/22 07:35:09;;;;;;;5.27;3.33;;;-0.90;99.90;;;;;;4978413;28;21008;-85
2021/12/22 07:37:41;;;;;;;5.53;5.03;;;-0.90;99.90;;;;;;4960956;28;20172;-81
2021/12/22 07:40:12;;;;;;;8.55;5.07;;;-0.90;99.90;;;;;;4983130;28;20054;-81
2021/12/22 07:42:38;;;;;;;10.93;4.37;;;-0.90;99.90;;;;;;4971346;28;20417;-81
2021/12/22 07:45:05;;;;;;;5.33;3.80;;;-0.90;99.90;;;;;;4955678;28;20556;-82
2021/12/22 07:47:30;;;;;;;5.53;5.07;;;-0.90;99.90;;;;;;4966098;28;20503;-80
2021/12/22 07:49:56;;;;;;;4.10;3.87;;;-0.90;99.90;;;;;;4967686;28;20067;-80
2021/12/22 07:52:23;;;;;;;8.27;4.50;;;-0.90;99.90;;;;;;4985165;28;20077;-81
2021/12/22 07:54:49;;;;;;;9.67;6.30;;;-0.90;99.90;;;;;;4967507;28;20539;-80
2021/12/22 07:57:14;;;;;;;4.17;3.87;;;-0.90;99.90;;;;;;4984221;28;20042;-81
2021/12/22 07:59:40;;;;;;;11.40;5.87;;;-0.90;99.90;;;;;;4984159;28;20669;-81
2021/12/22 08:02:05;;;;;;;5.93;3.60;;;-0.90;99.90;;;;;;4984381;28;20129;-81
2021/12/22 08:04:31;;;;;;;9.60;7.13;;;-0.90;99.90;;;;;;4985172;28;20125;-80
2021/12/22 08:06:57;;;;;;;5.30;3.40;;;-0.90;99.90;;;;;;4966028;28;20497;-78
2021/12/22 08:09:26;;;;;;;4.83;4.13;;;-0.90;99.90;;;;;;4965427;28;20468;-79
2021/12/22 08:11:53;;;;;;;11.10;5.37;;;-0.90;99.90;;;;;;4972659;28;20038;-80
2021/12/22 08:14:19;;;;;;;5.53;3.37;;;-0.90;99.90;;;;;;4985328;28;20042;-80
2021/12/22 08:16:45;;;;;;;3.77;3.40;;;-0.90;99.90;;;;;;4966917;28;20130;-79
2021/12/22 08:19:10;;;;;;;7.57;4.73;;;-0.90;99.90;;;;;;4984566;28;20511;-80
2021/12/22 08:21:37;;;;;;;5.77;4.60;;;-0.90;99.90;;;;;;4982470;28;20123;-81
2021/12/22 08:24:03;;;;;;;10.13;4.70;;;-0.90;99.90;;;;;;4962148;28;20038;-81
2021/12/22 08:26:29;;;;;;;12.03;4.63;;;-0.90;99.90;;;;;;4962820;28;20092;-80
2021/12/22 08:28:55;;;;;;;11.90;5.97;;;-0.90;99.90;;;;;;4983842;28;20527;-81
2021/12/22 08:31:20;;;;;;;11.83;6.20;;;-0.80;99.90;;;;;;4985375;28;20042;-79
2021/12/22 08:33:47;;;;;;;3.97;3.03;;;-0.90;99.90;;;;;;4967331;28;20042;-81
2021/12/22 08:39:03;;;;;;;13.70;4.33;;;-0.80;99.90;;;;;;4957611;28;20050;-80
2021/12/22 08:41:33;;;;;;;5.83;4.70;;;-0.80;99.90;;;;;;4964571;28;20043;-80
2021/12/22 08:44:03;;;;;;;9.93;4.50;;;-0.80;99.90;;;;;;4947651;28;20381;-80
2021/12/22 08:46:29;;;;;;;4.97;4.57;;;-0.80;99.90;;;;;;4965300;28;20045;-81
2021/12/22 08:48:56;;;;;;;6.57;4.47;;;-0.80;99.90;;;;;;4972093;28;20129;-81
2021/12/22 08:51:21;;;;;;;14.03;5.30;;;-0.80;99.90;;;;;;4984480;28;20046;-85
2021/12/22 08:53:47;;;;;;;10.93;4.97;;;-0.70;99.90;;;;;;4984133;28;20050;-82
2021/12/22 08:56:14;;;;;;;4.20;3.50;;;-0.70;99.90;;;;;;4965724;28;20121;-82
2021/12/22 08:58:40;;;;;;;7.50;4.87;;;-0.70;99.90;;;;;;4984157;28;20034;-83
2021/12/22 09:01:06;;;;;;;5.17;4.47;;;-0.70;99.90;;;;;;4966462;28;20563;-82
2021/12/22 09:03:32;;;;;;;5.57;4.97;;;-0.70;99.90;;;;;;4966343;28;20678;-83
2021/12/22 09:05:59;;;;;;;5.73;5.10;;;-0.70;99.90;;;;;;4970954;28;20130;-84
2021/12/22 09:08:25;;;;;;;5.23;4.53;;;-0.70;99.90;;;;;;4989290;28;20042;-84
2021/12/22 09:10:51;;;;;;;13.57;5.77;;;-0.60;99.90;;;;;;4985613;28;20053;-89
2021/12/22 09:13:19;;;;;;;5.83;5.30;;;-0.70;99.90;;;;;;4968693;28;20122;-82
2021/12/22 09:15:49;;;;;;;6.90;3.53;;;-0.70;99.90;;;;;;4992341;28;20128;-82
2021/12/22 09:18:15;;;;;;;5.77;5.27;;;-0.60;99.90;;;;;;4974871;28;20044;-82
2021/12/22 09:20:41;;;;;;;4.33;3.93;;;-0.60;99.90;;;;;;4971580;28;20049;-80
2021/12/22 09:23:06;;;;;;;5.67;5.03;;;-0.60;99.90;;;;;;4969074;28;20043;-82
2021/12/22 09:25:33;;;;;;;5.60;4.80;;;-0.50;99.90;;;;;;4955978;28;20508;-81
2021/12/22 09:28:00;;;;;;;10.47;5.77;;;-0.50;99.90;;;;;;4972222;28;20054;-86
2021/12/22 09:30:27;;;;;;;4.47;3.73;;;-0.50;99.90;;;;;;4993453;28;20120;-84
2021/12/22 09:32:52;;;;;;;5.53;4.07;;;-0.50;99.90;;;;;;4989418;28;20042;-82
2021/12/22 09:35:18;;;;;;;5.70;4.93;;;-0.50;99.90;;;;;;4988932;28;20113;-83
2021/12/22 09:37:44;;;;;;;5.03;4.47;;;-0.50;99.90;;;;;;4993884;28;20488;-81
2021/12/22 09:40:10;;;;;;;4.80;4.50;;;-0.50;99.90;;;;;;4988620;28;20540;-81
2021/12/22 09:42:37;;;;;;;6.07;4.00;;;-0.40;99.90;;;;;;4982527;28;20077;-83
2021/12/22 09:45:04;;;;;;;6.73;4.37;;;-0.40;99.90;;;;;;4976987;28;20130;-80
2021/12/22 09:47:37;;;;;;;6.33;5.70;;;-0.40;99.90;;;;;;4963343;28;20046;-80
2021/12/22 09:50:12;;;;;;;5.37;4.97;;;-0.30;99.90;;;;;;4961003;28;20081;-82
2021/12/22 09:52:39;;;;;;;7.80;7.00;;;-0.30;99.90;;;;;;4964423;28;20050;-82
2021/12/22 09:55:07;;;;;;;8.90;6.67;;;-0.40;99.90;;;;;;4980872;28;20049;-82
2021/12/22 09:57:34;;;;;;;9.00;4.60;;;-0.40;99.90;;;;;;4981695;28;20047;-80
2021/12/22 10:00:00;;;;;;;6.40;5.00;;;-0.40;99.90;;;;;;4981099;28;20092;-81
2021/12/22 10:02:29;;;;;;;6.03;4.50;;;-0.30;99.90;;;;;;4982535;28;20069;-81
2021/12/22 10:04:56;;;;;;;15.33;5.10;;;-0.30;99.90;;;;;;4975337;28;20050;-82
2021/12/22 10:07:28;;;;;;;6.43;5.83;;;-0.20;99.90;;;;;;4964532;28;20108;-81
2021/12/22 10:09:59;;;;;;;7.18;4.82;;;-0.20;99.90;;;;;;4980832;28;20560;-82
2021/12/22 10:12:26;;;;;;;5.07;4.65;;;-0.30;99.90;;;;;;4981589;28;20049;-82
2021/12/22 10:14:55;;;;;;;7.17;4.83;;;-0.20;99.90;;;;;;4964718;28;20065;-82
2021/12/22 10:17:37;;;;;;;7.23;5.83;;;-0.20;99.90;;;;;;4974900;28;20064;-81
2021/12/22 10:20:08;;;;;;;7.22;4.15;;;-0.20;99.90;;;;;;4979044;28;20401;-81
2021/12/22 10:22:46;;;;;;;4.60;3.77;;;-0.20;99.90;;;;;;4977102;28;20050;-80
2021/12/22 10:25:14;;;;;;;4.33;4.03;;;-0.20;99.90;;;;;;4978677;28;20062;-80
2021/12/22 10:27:42;;;;;;;11.27;5.77;;;-0.10;99.90;;;;;;4963363;28;20049;-80
2021/12/22 10:30:21;;;;;;;10.80;6.03;;;-0.10;99.90;;;;;;4981298;28;20085;-79
2021/12/22 10:32:47;;;;;;;7.50;5.43;;;-0.10;99.90;;;;;;4964628;28;20034;-80
2021/12/22 10:35:13;;;;;;;7.07;6.50;;;-0.10;99.90;;;;;;4964560;28;20031;-81
2021/12/22 10:37:41;;;;;;;6.60;4.83;;;0.00;99.90;;;;;;4956752;28;20064;-79
2021/12/22 10:40:37;;;;;;;8.00;6.27;;;0.00;99.90;;;;;;4959230;28;20133;-79
2021/12/22 10:43:04;;;;;;;5.90;5.40;;;-0.10;99.90;;;;;;4977457;28;20267;-79
2021/12/22 10:45:34;;;;;;;12.20;5.70;;;-0.10;99.90;;;;;;4960141;28;20053;-80
2021/12/22 10:50:55;;;;;;;6.83;6.13;;;-0.10;99.90;;;;;;4982784;28;20448;-81
2021/12/22 10:53:20;;;;;;;11.50;7.40;;;-0.10;99.90;;;;;;4963673;28;20035;-79
2021/12/22 10:55:49;;;;;;;5.70;5.20;;;-0.10;99.90;;;;;;4975930;28;20097;-79
2021/12/22 10:58:34;;;;;;;4.53;4.20;;;-0.10;99.90;;;;;;4962280;28;20050;-82
2021/12/22 11:01:17;;;;;;;5.67;3.93;;;-0.10;99.90;;;;;;4964068;28;20062;-79
2021/12/22 11:03:47;;;;;;;;;;;0.00;99.90;;;;;;4961955;28;20132;-81
2021/12/22 11:06:23;;;;;;;4.90;4.30;;;0.00;99.90;;;;;;4980491;28;20016;-80
2021/12/22 11:09:10;;;;;;;6.03;4.63;;;0.00;99.90;;;;;;4981228;28;20047;-80
2021/12/22 11:11:39;;;;;;;7.13;5.23;;;0.00;99.90;;;;;;4975573;28;20129;-79
2021/12/22 11:14:22;;;;;;;7.20;5.03;;;0.10;99.90;;;;;;4949668;28;20034;-79
2021/12/22 11:17:00;;;;;;;7.80;5.17;;;0.10;99.90;;;;;;4964304;28;20034;-78
2021/12/22 11:19:36;;;;;;;10.70;5.83;;;0.10;99.90;;;;;;4966107;28;20082;-82
2021/12/22 11:22:11;;;;;;;5.63;3.67;;;0.10;99.90;;;;;;4976222;28;20039;-81
2021/12/22 11:24:41;;;;;;;7.87;7.07;;;0.10;99.90;;;;;;4977550;28;20572;-82
2021/12/22 11:27:08;;;;;;;6.40;4.60;;;0.10;99.90;;;;;;4972564;28;20082;-81
2021/12/22 11:29:37;;;;;;;11.93;7.97;;;0.10;99.90;;;;;;4994331;28;20041;-81
2021/12/22 11:32:04;;;;;;;9.17;7.27;;;0.10;99.90;;;;;;4988113;28;20055;-81
2021/12/22 11:34:35;;;;;;;8.27;6.77;;;0.20;99.90;;;;;;4976055;28;20046;-80
2021/12/22 11:37:02;;;;;;;7.47;6.70;;;0.20;99.90;;;;;;4949477;28;20051;-80
2021/12/22 11:39:30;;;;;;;4.50;3.67;;;0.20;99.90;;;;;;4964113;28;20042;-80
2021/12/22 11:42:02;;;;;;;5.50;5.00;;;0.20;99.90;;;;;;4962030;28;20129;-80
2021/12/22 11:44:29;;;;;;;5.32;4.90;;;0.30;99.90;;;;;;4975500;28;20047;-80
2021/12/22 11:47:00;;;;;;;3.03;2.80;;;0.30;99.90;;;;;;4965663;28;20077;-79
2021/12/22 11:49:28;;;;;;;9.20;6.37;;;0.30;99.90;;;;;;4977982;28;20051;-80
2021/12/22 11:51:56;;;;;;;7.50;6.30;;;0.30;99.90;;;;;;4982763;28;20483;-80
2021/12/22 11:54:27;;;;;;;5.47;4.80;;;0.40;99.90;;;;;;4963266;28;20529;-78
2021/12/22 11:56:59;;;;;;;7.27;6.57;;;0.30;99.90;;;;;;4954546;28;20304;-89
2021/12/22 11:59:26;;;;;;;9.73;7.55;;;0.40;99.90;;;;;;4964962;28;20426;-80
2021/12/22 12:02:17;;;;;;;7.77;6.57;;;0.40;99.90;;;;;;4981333;28;20511;-80
2021/12/22 12:04:43;;;;;;;5.70;4.97;;;0.40;99.90;;;;;;4984394;28;20034;-80
2021/12/22 12:07:09;;;;;;;12.70;7.03;;;0.40;99.90;;;;;;4967036;28;20827;-78
2021/12/22 12:09:35;;;;;;;6.17;5.63;;;0.50;99.90;;;;;;4984066;28;20060;-78
2021/12/22 12:12:04;;;;;;;4.80;4.47;;;0.40;99.90;;;;;;4989062;28;20091;-79
2021/12/22 12:23:27;;;;;;;6.20;4.83;;;0.50;99.90;;;;;;4984689;28;20506;-80
2021/12/22 12:25:54;;;;;;;6.40;5.33;;;0.50;99.90;;;;;;4972950;28;20061;-80
2021/12/22 12:28:21;;;;;;;11.17;7.27;;;0.50;99.90;;;;;;4969097;28;20117;-80
2021/12/22 12:30:49;;;;;;;6.23;5.63;;;0.50;99.90;;;;;;4971079;28;20046;-80
2021/12/22 12:33:29;;;;;;;7.10;6.10;;;0.50;99.90;;;;;;4972352;28;20045;-80
2021/12/22 12:36:03;;;;;;;6.40;5.73;;;0.60;99.90;;;;;;4969809;28;20046;-80
2021/12/22 12:38:44;;;;;;;9.83;6.80;;;0.50;99.90;;;;;;4990366;28;20034;-78
2021/12/22 12:41:19;;;;;;;6.70;5.57;;;0.50;99.90;;;;;;4988122;28;20047;-81
2021/12/22 12:43:54;;;;;;;9.60;6.80;;;0.50;99.90;;;;;;4966939;28;20050;-81
2021/12/22 12:46:20;;;;;;;6.57;6.07;;;0.50;99.90;;;;;;4984545;28;20046;-80
2021/12/22 12:49:02;;;;;;;7.33;6.57;;;0.50;99.90;;;;;;4968280;28;20053;-79
2021/12/22 12:51:41;;;;;;;5.93;5.35;;;0.50;99.90;;;;;;4959899;28;20038;-83
2021/12/22 12:54:16;;;;;;;11.97;5.13;;;0.50;99.90;;;;;;4976280;28;20536;-85
2021/12/22 12:56:44;;;;;;;8.90;7.50;;;0.50;99.90;;;;;;4980241;28;20069;-77
2021/12/22 12:59:11;;;;;;;10.90;7.83;;;0.50;99.90;;;;;;4987998;28;20073;-78
2021/12/22 13:01:50;;;;;;;7.73;6.37;;;0.50;99.90;;;;;;4961869;28;20030;-77
2021/12/22 13:04:36;;;;;;;12.27;5.77;;;0.50;99.90;;;;;;4948664;28;20298;-78
2021/12/22 13:07:16;;;;;;;6.87;5.90;;;0.50;99.90;;;;;;4965271;28;20034;-78
2021/12/22 13:10:11;;;;;;;9.77;7.47;;;0.60;99.90;;;;;;4978170;28;20078;-78
2021/12/22 13:18:00;;;;;;;15.70;8.23;;;0.60;99.90;;;;;;4972691;28;20069;-76
2021/12/22 13:20:35;;;;;;;6.50;5.80;;;0.60;99.90;;;;;;4972312;28;20049;-76
2021/12/22 13:23:08;;;;;;;5.03;4.63;;;0.60;99.90;;;;;;4972232;28;20053;-77
2021/12/22 13:25:46;;;;;;;8.57;5.97;;;0.60;99.90;;;;;;4974366;28;20082;-77
2021/12/22 13:28:17;;;;;;;7.13;5.83;;;0.60;99.90;;;;;;4970851;28;20046;-77
2021/12/22 13:30:46;;;;;;;5.83;4.97;;;0.60;99.90;;;;;;4993387;28;20042;-77
2021/12/22 13:33:15;;;;;;;6.27;4.57;;;0.60;99.90;;;;;;4966685;28;20298;-75
2021/12/22 13:35:45;;;;;;;8.13;6.20;;;0.60;99.90;;;;;;4981144;28;20391;-75